Wetterdaten: Woche 04.06.12 - 10.06.12 (KW23)
Datum Zeit Temp. A. Feuchte A. Luftdruck Regen Wind Richtung Taupunkt Windchill Windben
04.06.2012 00:00 20,7 C 71 % 1006,0 hPa 0,0 l/m 11,8 km/h N 15,3 C 19,0 C 28,6 km/h
04.06.2012 01:00 19,8 C 74 % 1006,1 hPa 0,0 l/m 10,6 km/h N 15,0 C 18,2 C 26,9 km/h
04.06.2012 02:00 19,5 C 72 % 1006,5 hPa 0,0 l/m 3,9 km/h N 14,3 C 19,4 C 14,9 km/h
04.06.2012 03:00 19,3 C 71 % 1006,9 hPa 0,0 l/m 4,1 km/h N 13,7 C 19,3 C 18,5 km/h
04.06.2012 04:00 18,5 C 71 % 1007,3 hPa 0,0 l/m 3,0 km/h N 13,2 C 18,5 C 12,9 km/h
04.06.2012 05:00 18,1 C 69 % 1007,9 hPa 0,0 l/m 3,6 km/h N 12,2 C 18,1 C 15,7 km/h
04.06.2012 06:00 17,8 C 71 % 1008,3 hPa 0,0 l/m 5,8 km/h N 12,4 C 17,4 C 15,7 km/h
04.06.2012 07:00 17,9 C 71 % 1008,4 hPa 0,0 l/m 6,4 km/h N 12,6 C 17,5 C 18,9 km/h
04.06.2012 08:00 18,2 C 70 % 1008,6 hPa 0,0 l/m 8,9 km/h N 12,7 C 17,1 C 20,9 km/h
04.06.2012 09:00 18,0 C 72 % 1009,1 hPa 0,0 l/m 3,9 km/h N 12,9 C 18,0 C 14,5 km/h
04.06.2012 10:00 16,8 C 79 % 1009,6 hPa 0,5 l/m 4,0 km/h N 13,2 C 16,8 C 14,5 km/h
04.06.2012 11:00 16,8 C 80 % 1009,8 hPa 0,5 l/m 2,4 km/h N 13,2 C 16,8 C 11,7 km/h
04.06.2012 12:00 15,9 C 81 % 1010,1 hPa 1,0 l/m 3,8 km/h N 12,6 C 15,9 C 16,1 km/h
04.06.2012 13:00 15,1 C 81 % 1010,2 hPa 5,7 l/m 3,6 km/h N 11,8 C 15,1 C 13,3 km/h
04.06.2012 14:00 14,8 C 80 % 1010,6 hPa 6,2 l/m 2,8 km/h N 11,3 C 14,8 C 11,7 km/h
04.06.2012 15:00 14,9 C 79 % 1010,5 hPa 2,6 l/m 3,0 km/h N 11,1 C 14,9 C 10,1 km/h
04.06.2012 16:00 14,9 C 79 % 1010,3 hPa 1,8 l/m 3,1 km/h N 11,2 C 14,9 C 10,1 km/h
04.06.2012 17:00 14,5 C 80 % 1010,4 hPa 1,0 l/m 4,1 km/h N 11,0 C 14,5 C 12,5 km/h
04.06.2012 18:00 14,4 C 81 % 1010,1 hPa 0,0 l/m 3,8 km/h N 11,0 C 14,4 C 10,9 km/h
04.06.2012 19:00 14,4 C 81 % 1010,0 hPa 0,0 l/m 2,5 km/h N 11,2 C 14,4 C 10,9 km/h
04.06.2012 20:00 14,3 C 82 % 1009,9 hPa 0,0 l/m 4,2 km/h N 11,2 C 14,3 C 12,5 km/h
04.06.2012 21:00 14,2 C 82 % 1010,0 hPa 0,3 l/m 6,7 km/h N 11,2 C 14,0 C 18,9 km/h
04.06.2012 22:00 14,1 C 82 % 1010,3 hPa 0,0 l/m 4,3 km/h N 11,0 C 14,1 C 14,5 km/h
04.06.2012 23:00 13,4 C 82 % 1010,5 hPa 0,3 l/m 2,5 km/h N 10,4 C 13,4 C 10,5 km/h
05.06.2012 00:00 13,4 C 82 % 1010,2 hPa 0,0 l/m 3,4 km/h N 10,4 C 13,4 C 10,9 km/h
05.06.2012 01:00 14,1 C 79 % 1009,7 hPa 0,0 l/m 6,6 km/h N 10,4 C 13,7 C 20,5 km/h
05.06.2012 02:00 14,4 C 78 % 1009,2 hPa 0,3 l/m 10,7 km/h N 10,6 C 12,2 C 26,1 km/h
05.06.2012 03:00 14,4 C 78 % 1009,1 hPa 0,0 l/m 13,6 km/h N 10,5 C 11,0 C 32,6 km/h
05.06.2012 04:00 14,4 C 77 % 1009,0 hPa 0,0 l/m 13,8 km/h N 10,4 C 11,0 C 29,0 km/h
05.06.2012 05:00 14,5 C 76 % 1009,2 hPa 0,0 l/m 14,4 km/h N 10,2 C 10,8 C 32,2 km/h
05.06.2012 06:00 14,5 C 76 % 1009,5 hPa 0,0 l/m 14,1 km/h N 10,2 C 10,8 C 35,0 km/h
05.06.2012 07:00 14,7 C 74 % 1009,6 hPa 0,0 l/m 12,6 km/h N 10,2 C 11,7 C 29,4 km/h
05.06.2012 08:00 14,9 C 73 % 1010,1 hPa 0,0 l/m 13,7 km/h N 10,1 C 11,5 C 30,2 km/h
05.06.2012 09:00 15,1 C 72 % 1011,0 hPa 0,0 l/m 13,8 km/h N 10,1 C 11,7 C 32,6 km/h
05.06.2012 10:00 15,2 C 67 % 1011,4 hPa 0,0 l/m 14,1 km/h N 9,0 C 11,8 C 38,6 km/h
05.06.2012 11:00 15,6 C 57 % 1012,0 hPa 0,0 l/m 19,1 km/h N 7,0 C 10,7 C 47,1 km/h
05.06.2012 12:00 15,6 C 52 % 1012,9 hPa 0,0 l/m 23,3 km/h N 5,7 C 9,8 C 51,9 km/h
05.06.2012 13:00 15,4 C 56 % 1013,8 hPa 0,0 l/m 21,8 km/h N 6,6 C 9,8 C 49,1 km/h
05.06.2012 14:00 13,9 C 62 % 1014,7 hPa 0,0 l/m 20,4 km/h N 6,6 C 8,2 C 41,4 km/h
05.06.2012 15:00 11,7 C 74 % 1015,7 hPa 0,8 l/m 17,0 km/h N 7,1 C 6,5 C 37,8 km/h
05.06.2012 16:00 11,4 C 75 % 1016,0 hPa 0,3 l/m 14,5 km/h N 7,2 C 7,0 C 32,2 km/h
05.06.2012 17:00 12,1 C 72 % 1016,0 hPa 0,0 l/m 12,4 km/h N 7,1 C 8,8 C 30,2 km/h
05.06.2012 18:00 12,1 C 69 % 1016,3 hPa 0,0 l/m 11,3 km/h N 6,6 C 9,2 C 27,8 km/h
05.06.2012 19:00 12,1 C 69 % 1016,8 hPa 0,0 l/m 12,6 km/h N 6,5 C 8,7 C 28,6 km/h
05.06.2012 20:00 12,2 C 66 % 1016,9 hPa 0,0 l/m 10,3 km/h N 6,0 C 10,0 C 27,4 km/h
05.06.2012 21:00 12,0 C 66 % 1017,3 hPa 0,0 l/m 9,3 km/h N 5,9 C 10,3 C 24,9 km/h
05.06.2012 22:00 11,8 C 66 % 1017,6 hPa 0,0 l/m 9,1 km/h N 5,7 C 10,1 C 20,9 km/h
05.06.2012 23:00 11,2 C 69 % 1017,1 hPa 0,0 l/m 9,2 km/h N 5,6 C 9,5 C 20,9 km/h
06.06.2012 00:00 10,3 C 72 % 1017,0 hPa 0,0 l/m 2,0 km/h N 5,4 C 10,3 C 10,4 km/h
06.06.2012 01:00 9,2 C 75 % 1016,8 hPa 0,0 l/m 1,0 km/h N 5,1 C 9,2 C 6,0 km/h
06.06.2012 02:00 8,0 C 78 % 1016,7 hPa 0,0 l/m 0,0 km/h N 4,3 C 8,0 C 0,4 km/h
06.06.2012 03:00 6,9 C 81 % 1016,3 hPa 0,0 l/m 0,2 km/h N 3,9 C 6,9 C 2,0 km/h
06.06.2012 04:00 6,7 C 83 % 1015,8 hPa 0,0 l/m 0,3 km/h N 3,9 C 6,7 C 5,2 km/h
06.06.2012 05:00 6,1 C 83 % 1015,8 hPa 0,0 l/m 0,0 km/h N 3,3 C 6,1 C 1,2 km/h
06.06.2012 06:00 6,5 C 83 % 1015,5 hPa 0,0 l/m 0,0 km/h N 3,7 C 6,5 C 2,4 km/h
06.06.2012 07:00 8,9 C 81 % 1015,3 hPa 0,0 l/m 0,0 km/h N 5,8 C 8,9 C 1,6 km/h
06.06.2012 08:00 12,5 C 68 % 1015,0 hPa 0,0 l/m 0,8 km/h N 6,7 C 12,5 C 6,0 km/h
06.06.2012 09:00 14,0 C 64 % 1014,3 hPa 0,0 l/m 1,3 km/h N 7,3 C 14,0 C 6,8 km/h
06.06.2012 10:00 14,8 C 59 % 1013,6 hPa 0,0 l/m 2,7 km/h N 6,8 C 14,8 C 10,1 km/h
06.06.2012 11:00 15,7 C 56 % 1013,2 hPa 0,0 l/m 3,1 km/h N 6,9 C 15,7 C 10,9 km/h
06.06.2012 12:00 17,5 C 55 % 1012,6 hPa 0,0 l/m 3,3 km/h N 8,2 C 17,5 C 12,9 km/h
06.06.2012 13:00 18,9 C 54 % 1011,8 hPa 0,0 l/m 2,0 km/h N 9,2 C 18,9 C 9,7 km/h
06.06.2012 14:00 19,9 C 52 % 1011,3 hPa 0,0 l/m 2,1 km/h N 9,6 C 19,9 C 10,5 km/h
06.06.2012 15:00 20,4 C 51 % 1010,8 hPa 0,0 l/m 1,2 km/h N 9,8 C 20,4 C 6,8 km/h
06.06.2012 16:00 20,8 C 50 % 1010,3 hPa 0,0 l/m 0,8 km/h N 9,9 C 20,8 C 5,6 km/h
06.06.2012 17:00 21,1 C 52 % 1009,9 hPa 0,0 l/m 0,7 km/h N 10,8 C 21,1 C 6,0 km/h
06.06.2012 18:00 20,4 C 55 % 1009,7 hPa 0,0 l/m 0,0 km/h N 11,0 C 20,4 C 1,2 km/h
06.06.2012 19:00 20,1 C 56 % 1009,4 hPa 0,0 l/m 0,2 km/h N 11,0 C 20,1 C 4,0 km/h
06.06.2012 20:00 19,3 C 62 % 1009,6 hPa 0,0 l/m 0,0 km/h N 11,9 C 19,3 C 0,8 km/h
06.06.2012 21:00 18,0 C 68 % 1010,3 hPa 0,0 l/m 0,0 km/h N 12,1 C 18,0 C 0,0 km/h
06.06.2012 22:00 17,2 C 70 % 1010,7 hPa 0,0 l/m 0,5 km/h N 11,7 C 17,2 C 4,4 km/h
06.06.2012 23:00 17,0 C 71 % 1010,6 hPa 0,0 l/m 0,1 km/h N 11,6 C 17,0 C 1,2 km/h
07.06.2012 00:00 16,2 C 75 % 1010,6 hPa 0,0 l/m 0,0 km/h N 11,7 C 16,2 C 0,8 km/h
07.06.2012 01:00 15,9 C 77 % 1010,6 hPa 0,0 l/m 0,0 km/h N 11,8 C 15,9 C 0,4 km/h
07.06.2012 02:00 14,9 C 80 % 1010,7 hPa 0,0 l/m 0,0 km/h N 11,4 C 14,9 C 0,0 km/h
07.06.2012 03:00 14,2 C 82 % 1010,5 hPa 0,0 l/m 0,0 km/h N 11,1 C 14,2 C 0,0 km/h
07.06.2012 04:00 13,7 C 82 % 1010,7 hPa 0,0 l/m 0,0 km/h N 10,7 C 13,7 C 0,0 km/h
07.06.2012 05:00 13,5 C 82 % 1010,9 hPa 0,0 l/m 0,1 km/h N 10,4 C 13,5 C 1,6 km/h
07.06.2012 06:00 14,6 C 80 % 1011,0 hPa 0,0 l/m 1,9 km/h N 11,3 C 14,6 C 6,4 km/h
07.06.2012 07:00 18,1 C 72 % 1011,0 hPa 0,0 l/m 4,2 km/h N 12,9 C 18,1 C 15,3 km/h
07.06.2012 08:00 19,7 C 68 % 1011,2 hPa 0,0 l/m 2,5 km/h N 13,7 C 19,7 C 9,3 km/h
07.06.2012 09:00 21,2 C 67 % 1011,1 hPa 0,0 l/m 0,4 km/h N 14,7 C 21,2 C 4,4 km/h
07.06.2012 10:00 21,9 C 63 % 1010,8 hPa 0,0 l/m 0,5 km/h N 14,4 C 21,9 C 6,0 km/h
07.06.2012 11:00 22,8 C 60 % 1010,5 hPa 0,0 l/m 5,4 km/h N 14,6 C 22,6 C 15,7 km/h
07.06.2012 12:00 23,8 C 53 % 1010,0 hPa 0,0 l/m 5,7 km/h N 13,6 C 23,7 C 18,1 km/h
07.06.2012 13:00 25,0 C 52 % 1009,2 hPa 0,0 l/m 4,6 km/h N 14,3 C 25,0 C 17,3 km/h
07.06.2012 14:00 25,4 C 51 % 1008,5 hPa 0,0 l/m 4,9 km/h N 14,6 C 25,4 C 16,9 km/h
07.06.2012 15:00 26,2 C 49 % 1007,7 hPa 0,0 l/m 3,3 km/h N 14,7 C 26,2 C 12,1 km/h
07.06.2012 16:00 27,0 C 47 % 1006,7 hPa 0,0 l/m 2,8 km/h N 14,6 C 27,0 C 12,1 km/h
07.06.2012 17:00 27,9 C 43 % 1005,9 hPa 0,0 l/m 4,8 km/h N 14,1 C 27,8 C 18,1 km/h
07.06.2012 18:00 27,5 C 44 % 1005,1 hPa 0,0 l/m 7,9 km/h N 14,0 C 27,2 C 23,3 km/h
07.06.2012 19:00 26,5 C 48 % 1004,9 hPa 0,0 l/m 6,3 km/h N 14,5 C 26,5 C 19,3 km/h
07.06.2012 20:00 25,3 C 52 % 1004,6 hPa 0,0 l/m 3,8 km/h N 14,6 C 25,3 C 11,7 km/h
07.06.2012 21:00 23,2 C 59 % 1004,5 hPa 0,0 l/m 0,1 km/h N 14,8 C 23,2 C 2,0 km/h
07.06.2012 22:00 20,4 C 69 % 1004,3 hPa 0,0 l/m 0,0 km/h N 14,5 C 20,4 C 0,8 km/h
07.06.2012 23:00 19,0 C 75 % 1003,9 hPa 0,0 l/m 0,1 km/h N 14,4 C 19,0 C 2,4 km/h
08.06.2012 00:00 20,1 C 71 % 1003,9 hPa 0,0 l/m 2,1 km/h N 14,7 C 20,1 C 6,8 km/h
08.06.2012 01:00 18,9 C 73 % 1003,9 hPa 0,0 l/m 0,0 km/h N 13,9 C 18,9 C 0,8 km/h
08.06.2012 02:00 16,6 C 80 % 1005,1 hPa 0,0 l/m 1,0 km/h N 13,1 C 16,6 C 9,3 km/h
08.06.2012 03:00 21,2 C 66 % 1005,5 hPa 0,0 l/m 12,6 km/h N 14,6 C 19,3 C 32,6 km/h
08.06.2012 04:00 21,3 C 65 % 1006,3 hPa 0,0 l/m 7,7 km/h N 14,3 C 20,6 C 25,0 km/h
08.06.2012 05:00 20,1 C 69 % 1006,9 hPa 0,0 l/m 2,5 km/h N 14,1 C 20,1 C 11,3 km/h
08.06.2012 06:00 19,0 C 74 % 1007,2 hPa 0,0 l/m 1,7 km/h N 14,3 C 19,0 C 6,4 km/h
08.06.2012 07:00 20,3 C 72 % 1008,0 hPa 0,0 l/m 3,0 km/h N 15,0 C 20,3 C 10,5 km/h
08.06.2012 08:00 21,8 C 64 % 1008,8 hPa 0,0 l/m 5,6 km/h N 14,6 C 21,7 C 17,3 km/h
08.06.2012 09:00 22,2 C 65 % 1009,2 hPa 0,0 l/m 5,2 km/h N 15,2 C 22,1 C 17,3 km/h
08.06.2012 10:00 22,6 C 64 % 1009,6 hPa 0,0 l/m 7,9 km/h N 15,4 C 22,1 C 19,7 km/h
08.06.2012 11:00 23,8 C 62 % 1009,8 hPa 0,0 l/m 6,8 km/h N 16,0 C 23,7 C 17,3 km/h
08.06.2012 12:00 24,9 C 58 % 1009,6 hPa 0,0 l/m 6,2 km/h N 16,1 C 24,7 C 17,7 km/h
08.06.2012 13:00 25,9 C 55 % 1009,3 hPa 0,0 l/m 3,5 km/h N 16,0 C 25,9 C 12,1 km/h
08.06.2012 14:00 27,0 C 51 % 1008,9 hPa 0,0 l/m 1,9 km/h N 16,0 C 27,0 C 10,9 km/h
08.06.2012 15:00 28,2 C 48 % 1008,2 hPa 0,0 l/m 1,8 km/h N 15,9 C 28,2 C 12,1 km/h
08.06.2012 16:00 28,0 C 48 % 1007,8 hPa 0,0 l/m 2,3 km/h N 15,8 C 28,0 C 13,3 km/h
08.06.2012 17:00 28,4 C 48 % 1007,1 hPa 0,0 l/m 3,4 km/h N 16,2 C 28,4 C 16,5 km/h
08.06.2012 18:00 27,6 C 51 % 1006,0 hPa 0,0 l/m 5,2 km/h N 16,4 C 27,6 C 20,9 km/h
08.06.2012 19:00 26,2 C 54 % 1005,0 hPa 0,0 l/m 2,5 km/h N 15,9 C 26,2 C 12,5 km/h
08.06.2012 20:00 23,4 C 65 % 1007,5 hPa 2,6 l/m 5,9 km/h N 16,3 C 22,7 C 22,1 km/h
08.06.2012 21:00 19,1 C 79 % 1010,2 hPa 0,0 l/m 9,8 km/h N 15,5 C 17,9 C 29,0 km/h
08.06.2012 22:00 18,6 C 78 % 1010,9 hPa 0,0 l/m 17,4 km/h N 14,7 C 14,9 C 37,8 km/h
08.06.2012 23:00 18,6 C 77 % 1011,9 hPa 0,0 l/m 9,9 km/h N 14,4 C 17,1 C 26,1 km/h
09.06.2012 00:00 18,4 C 77 % 1012,2 hPa 0,0 l/m 6,2 km/h N 14,3 C 18,3 C 17,3 km/h
09.06.2012 01:00 18,2 C 77 % 1011,8 hPa 0,0 l/m 7,5 km/h N 14,0 C 17,6 C 22,1 km/h
09.06.2012 02:00 18,1 C 75 % 1012,0 hPa 0,0 l/m 3,1 km/h N 13,6 C 18,1 C 12,1 km/h
09.06.2012 03:00 17,1 C 79 % 1012,1 hPa 0,0 l/m 1,7 km/h N 13,3 C 17,1 C 6,0 km/h
09.06.2012 04:00 16,7 C 81 % 1012,3 hPa 0,0 l/m 1,4 km/h N 13,4 C 16,7 C 7,6 km/h
09.06.2012 05:00 16,8 C 82 % 1012,9 hPa 0,0 l/m 0,5 km/h N 13,6 C 16,8 C 4,8 km/h
09.06.2012 06:00 17,2 C 81 % 1013,4 hPa 0,0 l/m 0,9 km/h N 13,9 C 17,2 C 6,0 km/h
09.06.2012 07:00 17,6 C 80 % 1014,1 hPa 0,0 l/m 4,0 km/h N 14,1 C 17,6 C 12,1 km/h
09.06.2012 08:00 17,6 C 78 % 1015,0 hPa 0,0 l/m 4,4 km/h N 13,7 C 17,6 C 11,7 km/h
09.06.2012 09:00 17,5 C 77 % 1015,6 hPa 0,0 l/m 4,6 km/h N 13,3 C 17,5 C 12,9 km/h
09.06.2012 10:00 17,1 C 76 % 1015,8 hPa 0,0 l/m 5,3 km/h N 12,9 C 17,1 C 16,1 km/h
09.06.2012 11:00 17,0 C 78 % 1016,3 hPa 0,0 l/m 3,5 km/h N 13,0 C 17,0 C 9,7 km/h
09.06.2012 12:00 16,7 C 80 % 1016,4 hPa 0,0 l/m 5,6 km/h N 13,2 C 16,7 C 14,9 km/h
09.06.2012 13:00 16,8 C 80 % 1015,8 hPa 0,0 l/m 4,3 km/h N 13,2 C 16,8 C 10,9 km/h
09.06.2012 14:00 17,2 C 78 % 1015,4 hPa 0,0 l/m 5,3 km/h N 13,4 C 17,2 C 14,9 km/h
09.06.2012 15:00 16,6 C 80 % 1015,7 hPa 0,0 l/m 4,6 km/h N 13,2 C 16,6 C 13,7 km/h
09.06.2012 16:00 16,2 C 80 % 1015,6 hPa 0,0 l/m 3,2 km/h N 12,7 C 16,2 C 9,3 km/h
09.06.2012 17:00 16,6 C 81 % 1015,3 hPa 0,8 l/m 0,6 km/h N 13,2 C 16,6 C 4,8 km/h
09.06.2012 18:00 16,2 C 82 % 1015,3 hPa 0,5 l/m 0,1 km/h N 13,1 C 16,2 C 2,4 km/h
09.06.2012 19:00 15,8 C 81 % 1014,9 hPa 0,0 l/m 1,8 km/h N 12,5 C 15,8 C 7,6 km/h
09.06.2012 20:00 15,4 C 82 % 1015,0 hPa 0,0 l/m 1,4 km/h N 12,3 C 15,4 C 8,1 km/h
09.06.2012 21:00 15,2 C 82 % 1014,2 hPa 0,0 l/m 0,4 km/h N 12,2 C 15,2 C 4,4 km/h
09.06.2012 22:00 14,7 C 82 % 1014,1 hPa 0,0 l/m 2,0 km/h N 11,6 C 14,7 C 7,2 km/h
09.06.2012 23:00 14,3 C 82 % 1014,2 hPa 0,0 l/m 0,9 km/h N 11,2 C 14,3 C 5,6 km/h
10.06.2012 00:00 13,8 C 82 % 1014,3 hPa 0,0 l/m 0,1 km/h N 10,8 C 13,8 C 2,4 km/h
10.06.2012 01:00 13,3 C 82 % 1014,3 hPa 0,0 l/m 0,0 km/h N 10,2 C 13,3 C 0,0 km/h
10.06.2012 02:00 12,5 C 82 % 1014,1 hPa 0,0 l/m 0,0 km/h N 9,4 C 12,5 C 0,0 km/h
10.06.2012 03:00 11,8 C 81 % 1013,3 hPa 0,0 l/m 0,0 km/h N 8,6 C 11,8 C 0,8 km/h
10.06.2012 04:00 12,0 C 80 % 1012,8 hPa 0,0 l/m 0,0 km/h N 8,5 C 12,0 C 0,0 km/h
10.06.2012 05:00 12,2 C 79 % 1012,8 hPa 0,0 l/m 0,0 km/h N 8,6 C 12,2 C 1,2 km/h
10.06.2012 06:00 12,7 C 78 % 1012,8 hPa 0,0 l/m 0,2 km/h N 9,0 C 12,7 C 2,8 km/h
10.06.2012 07:00 13,0 C 78 % 1012,7 hPa 10,4 l/m 0,5 km/h N 9,3 C 13,0 C 4,4 km/h
10.06.2012 08:00 13,7 C 77 % 1011,9 hPa 0,3 l/m 0,4 km/h N 9,7 C 13,7 C 4,0 km/h
10.06.2012 09:00 15,3 C 76 % 1011,5 hPa 0,0 l/m 0,9 km/h N 11,1 C 15,3 C 6,0 km/h
10.06.2012 10:00 15,9 C 81 % 1011,0 hPa 0,0 l/m 2,7 km/h N 12,6 C 15,9 C 10,1 km/h
10.06.2012 11:00 17,0 C 81 % 1010,3 hPa 0,0 l/m 2,3 km/h N 13,7 C 17,0 C 10,1 km/h
10.06.2012 12:00 17,4 C 80 % 1009,9 hPa 0,0 l/m 1,6 km/h N 13,8 C 17,4 C 8,0 km/h
10.06.2012 13:00 17,9 C 79 % 1009,2 hPa 0,0 l/m 0,7 km/h N 14,2 C 17,9 C 6,4 km/h
10.06.2012 14:00 18,5 C 79 % 1008,4 hPa 0,0 l/m 0,3 km/h N 14,8 C 18,5 C 4,4 km/h
10.06.2012 15:00 17,6 C 80 % 1008,0 hPa 0,0 l/m 5,2 km/h N 14,1 C 17,4 C 14,5 km/h
10.06.2012 16:00 16,4 C 80 % 1007,9 hPa 0,0 l/m 4,7 km/h N 13,0 C 16,4 C 15,3 km/h
10.06.2012 17:00 16,4 C 77 % 1007,7 hPa 0,0 l/m 3,8 km/h N 12,4 C 16,4 C 16,9 km/h
10.06.2012 18:00 15,3 C 81 % 1007,8 hPa 12,5 l/m 4,0 km/h N 12,0 C 15,2 C 15,7 km/h
10.06.2012 19:00 14,1 C 81 % 1007,7 hPa 0,5 l/m 2,9 km/h N 10,9 C 14,1 C 14,5 km/h
10.06.2012 20:00 14,1 C 82 % 1007,4 hPa 0,0 l/m 4,3 km/h N 11,0 C 14,1 C 14,1 km/h
10.06.2012 21:00 14,0 C 82 % 1007,5 hPa 1,3 l/m 3,7 km/h N 10,9 C 14,0 C 15,7 km/h
10.06.2012 22:00 13,5 C 81 % 1007,8 hPa 0,0 l/m 1,1 km/h N 10,4 C 13,5 C 8,0 km/h
10.06.2012 23:00 13,8 C 81 % 1007,3 hPa 0,0 l/m 4,7 km/h N 10,7 C 13,8 C 12,5 km/h
Min-Datum _ 06.06.12 07.06.12 08.06.12 - 06.06.12 - 06.06.12 05.06.12 06.06.12
_ Min-Zeit 05:45 17:30 00:15 - 02:00 - 05:45 15:45 02:15
Minimum _ 5,8 C 41 % 1003,7 hPa - 0,0 km/h - 3,1 C 5,8 C 0,0 km/h
Max-Datum _ 08.06.12 06.06.12 05.06.12 10.06.12 05.06.12 - 08.06.12 08.06.12 05.06.12
_ Max-Zeit 17:15 04:15 22:15 18:30 12:15 - 11:30 17:00 11:30
Maximum _ 29,0 C 83 % 1017,7 hPa 12,5 l/m 25,2 km/h
N
- 16,8 C 28,9 C 59,5 km/h
N
Durchschnitt _ 17,1 C 71 % 1010,9 hPa #50,2 l/m 4,5 km/h N 11,6 C 16,5 C 13,7 km/h